Stillwell, Illinois
Current Conditions -  °F | °C
As of 4:15 AM on Saturday 22 Nov 2014 (Local Time) from KEOK Reporting Station
Overcast Overcast  
Wind Chill: 38°   Ceiling: 1100
Heat Index: 45°   Visibility: 10mi
Dew Point: 39°   Wind: 13mph
Humidity: 81%   Direction: 190°S
Pressure: 30.02"   Gusts: NA
Location:  40.2413°N, 91.2605°W
Report Text: KEOK 221015Z AUTO 19011KT 10SM OVC011 07/04 A3002 RMK AO2
Loading
Personal Weather Stations






























Interactive Weather Map New forecast layout! Learn more

10-Day Weather Forecast

Advertisements
Track Severe Weather on mobile